Time;durP1;ratioP1;P1;durP2;ratioP2;P2;SDS_P1;SDS_P2;PMS_P1;PMS_P2;Temp;Humidity;BMP_temperature;BMP_pressure;BME280_temperature;BME280_humidity;BME280_pressure;Samples;Min_cycle;Max_cycle;Signal;HPM_P1;HPM_P2
2021/05/22 00:00:21;;;;;;;2.17;1.10;;;8.00;99.90;;;;;;5011519;28;20037;-81
2021/05/22 00:02:47;;;;;;;2.70;1.40;;;8.00;99.90;;;;;;5011397;28;20038;-81
2021/05/22 00:05:13;;;;;;;2.43;0.90;;;8.00;99.90;;;;;;5026556;28;20038;-81
2021/05/22 00:07:38;;;;;;;1.50;0.80;;;8.00;99.90;;;;;;5011217;28;20033;-81
2021/05/22 00:10:11;;;;;;;1.53;0.97;;;8.00;99.90;;;;;;5011315;28;20034;-80
2021/05/22 00:12:42;;;;;;;1.00;0.80;;;8.00;99.90;;;;;;5011589;28;20853;-81
2021/05/22 00:15:09;;;;;;;3.40;1.00;;;8.00;99.90;;;;;;5011052;28;20077;-81
2021/05/22 00:17:35;;;;;;;5.13;1.00;;;8.00;99.90;;;;;;5011187;28;20087;-81
2021/05/22 00:20:00;;;;;;;2.30;0.77;;;7.90;99.90;;;;;;4993431;28;20033;-81
2021/05/22 00:22:27;;;;;;;2.13;0.97;;;8.00;99.90;;;;;;5011390;28;20030;-81
2021/05/22 00:24:52;;;;;;;1.67;0.90;;;7.90;99.90;;;;;;5011460;28;20029;-81
2021/05/22 00:27:18;;;;;;;3.20;1.00;;;7.90;99.90;;;;;;4993694;28;20030;-81
2021/05/22 00:29:44;;;;;;;0.87;0.77;;;7.90;99.90;;;;;;5019157;28;20037;-81
2021/05/22 00:32:09;;;;;;;1.03;0.77;;;8.00;99.90;;;;;;5010595;28;20026;-81
2021/05/22 00:34:35;;;;;;;3.17;1.00;;;7.90;99.90;;;;;;5011092;28;20501;-81
2021/05/22 00:37:00;;;;;;;0.93;0.80;;;8.00;99.90;;;;;;5010947;28;20475;-81
2021/05/22 00:39:26;;;;;;;2.83;1.33;;;8.00;99.90;;;;;;5011210;28;20467;-81
2021/05/22 00:41:52;;;;;;;1.77;0.90;;;8.00;99.90;;;;;;5014909;28;20061;-80
2021/05/22 00:44:17;;;;;;;1.27;0.70;;;8.00;99.90;;;;;;5014092;28;20033;-81
2021/05/22 00:46:43;;;;;;;1.10;0.80;;;8.00;99.90;;;;;;5014516;28;20037;-81
2021/05/22 00:49:09;;;;;;;1.83;0.90;;;8.00;99.90;;;;;;5030456;28;20427;-80
2021/05/22 00:51:34;;;;;;;1.50;1.20;;;8.00;99.90;;;;;;5015228;28;20026;-80
2021/05/22 00:54:00;;;;;;;0.80;0.80;;;8.00;99.90;;;;;;5015722;28;20033;-81
2021/05/22 00:56:26;;;;;;;1.60;0.90;;;8.00;99.90;;;;;;5019925;28;20028;-81
2021/05/22 00:58:51;;;;;;;2.13;1.00;;;8.00;99.90;;;;;;5016109;28;20026;-81
2021/05/22 01:01:17;;;;;;;0.83;0.83;;;7.90;99.90;;;;;;5015767;28;20037;-81
2021/05/22 01:03:45;;;;;;;1.93;0.90;;;7.90;99.90;;;;;;5019316;28;20100;-81
2021/05/22 01:06:24;;;;;;;4.57;1.43;;;7.90;99.90;;;;;;5030114;28;20025;-80
2021/05/22 01:08:53;;;;;;;2.13;0.90;;;7.90;99.90;;;;;;5025066;28;20022;-81
2021/05/22 01:11:23;;;;;;;2.03;1.00;;;7.80;99.90;;;;;;5030017;28;20060;-81
2021/05/22 01:13:58;;;;;;;0.70;0.70;;;7.80;99.90;;;;;;5029051;28;20474;-80
2021/05/22 01:16:24;;;;;;;2.25;0.73;;;7.90;99.90;;;;;;5009178;28;20041;-81
2021/05/22 01:18:50;;;;;;;0.70;0.70;;;7.80;99.90;;;;;;5009525;28;20033;-82
2021/05/22 01:21:17;;;;;;;1.00;0.70;;;7.70;99.90;;;;;;5009366;28;20048;-81
2021/05/22 01:23:49;;;;;;;4.83;0.80;;;7.60;99.90;;;;;;4991368;28;20034;-81
2021/05/22 01:26:16;;;;;;;0.70;0.70;;;7.60;99.90;;;;;;5009385;28;20025;-81
2021/05/22 01:28:44;;;;;;;0.90;0.80;;;7.60;99.90;;;;;;5009492;28;20025;-81
2021/05/22 01:31:11;;;;;;;1.83;0.70;;;7.50;99.90;;;;;;5009656;28;20085;-81
2021/05/22 01:33:37;;;;;;;1.40;0.80;;;7.50;99.90;;;;;;5009372;28;20029;-81
2021/05/22 01:36:04;;;;;;;2.97;0.70;;;7.60;99.90;;;;;;5009418;28;20026;-81
2021/05/22 01:38:30;;;;;;;1.30;0.90;;;7.50;99.90;;;;;;5009150;28;20022;-81
2021/05/22 01:40:55;;;;;;;1.87;0.80;;;7.50;99.90;;;;;;4994061;28;20032;-81
2021/05/22 01:43:21;;;;;;;0.70;0.70;;;7.50;99.90;;;;;;5013033;28;20136;-81
2021/05/22 01:45:49;;;;;;;2.70;0.60;;;7.60;99.90;;;;;;5012737;28;20041;-81
2021/05/22 01:48:19;;;;;;;0.63;0.63;;;7.60;99.90;;;;;;5012726;28;20030;-81
2021/05/22 01:50:49;;;;;;;0.60;0.60;;;7.60;99.90;;;;;;5012756;28;20030;-81
2021/05/22 01:53:17;;;;;;;0.57;0.57;;;7.60;99.90;;;;;;5012930;28;20018;-80
2021/05/22 01:55:44;;;;;;;0.50;0.50;;;7.50;99.90;;;;;;4995033;28;20026;-81
2021/05/22 01:58:11;;;;;;;0.70;0.70;;;7.40;99.90;;;;;;5012917;28;20037;-81
2021/05/22 02:00:36;;;;;;;1.33;0.50;;;7.30;99.90;;;;;;5012785;28;20030;-81
2021/05/22 02:03:13;;;;;;;2.00;0.67;;;7.30;99.90;;;;;;5012921;28;20029;-81
2021/05/22 02:05:39;;;;;;;0.60;0.60;;;7.30;99.90;;;;;;4995139;28;20033;-81
2021/05/22 02:08:13;;;;;;;0.60;0.60;;;7.30;99.90;;;;;;5012556;28;20045;-81
2021/05/22 02:10:40;;;;;;;7.03;0.70;;;7.30;99.90;;;;;;4995007;28;20024;-81
2021/05/22 02:13:06;;;;;;;1.07;0.60;;;7.30;99.90;;;;;;5012588;28;20152;-81
2021/05/22 02:15:34;;;;;;;0.50;0.50;;;7.30;99.90;;;;;;4976493;28;569117;-81
2021/05/22 02:18:02;;;;;;;0.60;0.60;;;7.30;99.90;;;;;;4996356;28;20054;-81
2021/05/22 02:20:29;;;;;;;0.60;0.60;;;7.30;99.90;;;;;;5013685;28;20441;-81
2021/05/22 02:22:56;;;;;;;1.53;0.60;;;7.20;99.90;;;;;;5013605;28;20049;-81
2021/05/22 02:25:22;;;;;;;0.60;0.60;;;7.20;99.90;;;;;;5013554;28;20033;-81
2021/05/22 02:27:47;;;;;;;0.70;0.60;;;7.20;99.90;;;;;;5013530;28;20373;-81
2021/05/22 02:30:16;;;;;;;0.90;0.60;;;7.40;99.90;;;;;;5013623;28;20092;-81
2021/05/22 02:32:47;;;;;;;2.67;0.70;;;7.50;99.90;;;;;;5013712;28;20030;-81
2021/05/22 02:35:15;;;;;;;0.90;0.70;;;7.40;99.90;;;;;;5013447;28;20030;-81
2021/05/22 02:37:41;;;;;;;0.60;0.60;;;7.50;99.90;;;;;;5013445;28;20029;-81
2021/05/22 02:40:16;;;;;;;0.97;0.70;;;7.40;99.90;;;;;;5013358;28;20056;-81
2021/05/22 02:42:47;;;;;;;1.50;0.80;;;7.50;99.90;;;;;;4996158;28;20034;-81
2021/05/22 02:45:13;;;;;;;1.00;0.70;;;7.50;99.90;;;;;;5013220;28;20052;-81
2021/05/22 02:47:43;;;;;;;3.80;0.80;;;7.50;99.90;;;;;;5013438;28;20510;-81
2021/05/22 02:50:11;;;;;;;0.60;0.60;;;7.50;99.90;;;;;;5012747;28;20383;-81
2021/05/22 02:52:38;;;;;;;0.70;0.70;;;7.50;99.90;;;;;;5012996;28;20026;-81
2021/05/22 02:55:06;;;;;;;0.70;0.70;;;7.50;99.90;;;;;;5012784;28;20021;-81
2021/05/22 02:57:33;;;;;;;1.50;0.60;;;7.40;99.90;;;;;;5012932;28;20018;-81
2021/05/22 03:00:00;;;;;;;1.00;0.60;;;7.40;99.90;;;;;;5013144;28;20174;-81
2021/05/22 03:02:26;;;;;;;2.37;0.90;;;7.40;99.90;;;;;;5012772;28;20014;-81
2021/05/22 03:04:52;;;;;;;1.00;0.57;;;7.40;99.90;;;;;;5012658;28;20368;-81
2021/05/22 03:07:18;;;;;;;1.17;0.63;;;7.40;99.90;;;;;;5012878;28;20037;-81
2021/05/22 03:09:46;;;;;;;0.70;0.70;;;7.30;99.90;;;;;;5012949;28;20026;-81
2021/05/22 03:12:17;;;;;;;0.70;0.60;;;7.40;99.90;;;;;;5012295;28;20022;-81
2021/05/22 03:14:43;;;;;;;0.60;0.60;;;7.30;99.90;;;;;;4994573;28;20495;-81
2021/05/22 03:17:09;;;;;;;1.57;0.80;;;7.30;99.90;;;;;;5012654;28;20037;-81
2021/05/22 03:19:34;;;;;;;1.23;0.70;;;7.30;99.90;;;;;;5012486;28;20034;-81
2021/05/22 03:22:00;;;;;;;0.77;0.67;;;7.20;99.90;;;;;;5012682;28;20048;-81
2021/05/22 03:24:25;;;;;;;1.03;0.80;;;7.20;99.90;;;;;;5012482;28;20025;-81
2021/05/22 03:26:52;;;;;;;1.00;0.70;;;7.20;99.90;;;;;;5012284;28;20037;-81
2021/05/22 03:29:17;;;;;;;0.83;0.73;;;7.20;99.90;;;;;;5012400;28;20463;-81
2021/05/22 03:31:43;;;;;;;1.27;0.93;;;7.30;99.90;;;;;;5012201;28;20026;-81
2021/05/22 03:34:08;;;;;;;1.87;0.90;;;7.30;99.90;;;;;;5012206;28;20501;-81
2021/05/22 03:36:34;;;;;;;1.53;0.80;;;7.30;99.90;;;;;;5012289;28;20034;-81
2021/05/22 03:39:00;;;;;;;1.30;0.90;;;7.20;99.90;;;;;;5012425;28;20030;-81
2021/05/22 03:41:25;;;;;;;0.70;0.70;;;7.30;99.90;;;;;;5011927;28;20436;-81
2021/05/22 03:43:51;;;;;;;1.27;0.70;;;7.20;99.90;;;;;;4994424;28;20029;-81
2021/05/22 03:46:16;;;;;;;0.80;0.70;;;7.20;99.90;;;;;;5012030;28;20026;-80
2021/05/22 03:48:42;;;;;;;1.93;0.70;;;7.20;99.90;;;;;;5010688;28;20046;-81
2021/05/22 03:51:07;;;;;;;0.70;0.70;;;7.20;99.90;;;;;;4994346;28;20041;-81
2021/05/22 03:53:33;;;;;;;0.87;0.70;;;7.30;99.90;;;;;;5011773;28;20061;-81
2021/05/22 03:55:59;;;;;;;1.17;0.60;;;7.40;99.90;;;;;;5011965;28;20054;-81
2021/05/22 03:58:24;;;;;;;0.77;0.77;;;7.40;99.90;;;;;;5011417;28;20026;-81
2021/05/22 04:00:50;;;;;;;2.40;0.80;;;7.40;99.90;;;;;;5011998;28;20479;-81
2021/05/22 04:03:15;;;;;;;1.47;0.80;;;7.40;99.90;;;;;;5011339;28;20724;-81
2021/05/22 04:05:41;;;;;;;1.20;0.80;;;7.40;99.90;;;;;;5010326;28;20128;-80
2021/05/22 04:08:06;;;;;;;0.70;0.70;;;7.50;99.90;;;;;;5011408;28;20029;-81
2021/05/22 04:10:32;;;;;;;1.17;0.83;;;7.50;99.90;;;;;;5011194;28;20097;-81
2021/05/22 04:12:58;;;;;;;0.93;0.80;;;7.50;99.90;;;;;;5011037;28;20022;-81
2021/05/22 04:15:24;;;;;;;0.80;0.70;;;7.40;99.90;;;;;;5011289;28;20356;-81
2021/05/22 04:17:49;;;;;;;0.70;0.70;;;7.40;99.90;;;;;;4993603;28;20030;-81
2021/05/22 04:20:15;;;;;;;1.97;0.87;;;7.50;99.90;;;;;;4993643;28;20026;-81
2021/05/22 04:22:40;;;;;;;1.23;1.00;;;7.50;99.90;;;;;;4993407;28;20030;-81
2021/05/22 04:25:07;;;;;;;0.80;0.70;;;7.50;99.90;;;;;;5011157;28;20547;-81
2021/05/22 04:27:33;;;;;;;0.70;0.70;;;7.50;99.90;;;;;;4993804;28;20108;-81
2021/05/22 04:29:59;;;;;;;1.10;0.87;;;7.60;99.90;;;;;;5011091;28;20097;-81
2021/05/22 04:32:24;;;;;;;1.63;0.70;;;7.60;99.90;;;;;;5011331;28;20176;-81
2021/05/22 04:34:50;;;;;;;1.63;0.80;;;7.70;99.90;;;;;;5011013;28;20022;-81
2021/05/22 04:37:15;;;;;;;0.70;0.70;;;7.70;99.90;;;;;;5011353;28;20032;-81
2021/05/22 04:39:41;;;;;;;1.67;0.90;;;7.70;99.90;;;;;;5010897;28;20030;-81
2021/05/22 04:42:07;;;;;;;1.00;0.87;;;7.70;99.90;;;;;;4991279;28;20034;-81
2021/05/22 04:44:35;;;;;;;1.40;0.77;;;7.60;99.90;;;;;;4993453;28;20049;-81
2021/05/22 04:47:00;;;;;;;2.20;0.90;;;7.60;99.90;;;;;;4995259;28;20072;-81
2021/05/22 04:49:28;;;;;;;0.90;0.70;;;7.60;99.90;;;;;;4992400;28;20428;-81
2021/05/22 04:51:56;;;;;;;2.50;0.80;;;7.70;99.90;;;;;;4990859;28;20089;-81
2021/05/22 04:54:21;;;;;;;0.60;0.60;;;7.70;99.90;;;;;;4991966;28;20034;-81
2021/05/22 04:56:47;;;;;;;0.67;0.67;;;7.70;99.90;;;;;;4991558;28;20027;-81
2021/05/22 04:59:15;;;;;;;2.87;0.90;;;7.70;99.90;;;;;;4990946;28;20058;-81
2021/05/22 05:01:41;;;;;;;2.60;0.90;;;7.80;99.90;;;;;;4992585;28;20066;-81
2021/05/22 05:04:07;;;;;;;1.10;1.00;;;7.80;99.90;;;;;;4993679;28;20380;-81
2021/05/22 05:06:33;;;;;;;2.00;0.80;;;7.80;99.90;;;;;;4991551;28;20033;-81
2021/05/22 05:08:59;;;;;;;1.90;0.80;;;7.80;99.90;;;;;;4992225;28;20089;-81
2021/05/22 05:11:25;;;;;;;1.30;0.87;;;7.90;99.90;;;;;;4992728;28;20493;-81
2021/05/22 05:13:50;;;;;;;1.03;0.67;;;7.90;99.90;;;;;;4974869;28;20030;-81
2021/05/22 05:16:16;;;;;;;1.73;0.80;;;7.90;99.90;;;;;;5009820;28;20041;-81
2021/05/22 05:18:42;;;;;;;0.80;0.80;;;7.90;99.90;;;;;;5010316;28;20206;-77
2021/05/22 05:21:08;;;;;;;2.10;0.80;;;8.00;99.90;;;;;;5008840;28;20032;-68
2021/05/22 05:23:37;;;;;;;1.13;0.60;;;8.00;99.90;;;;;;5009839;28;20034;-81
2021/05/22 05:26:03;;;;;;;1.83;0.70;;;8.10;99.90;;;;;;5009856;28;20034;-81
2021/05/22 05:28:29;;;;;;;2.20;0.90;;;8.10;99.90;;;;;;5010790;28;20530;-81
2021/05/22 05:30:54;;;;;;;1.73;0.73;;;8.10;99.90;;;;;;5010519;28;20014;-81
2021/05/22 05:33:20;;;;;;;1.13;0.80;;;8.20;99.90;;;;;;4993288;28;20053;-81
2021/05/22 05:35:47;;;;;;;3.93;1.17;;;8.30;99.90;;;;;;5011607;28;20443;-81
2021/05/22 05:38:12;;;;;;;0.70;0.70;;;8.40;99.90;;;;;;5010992;28;20018;-81
2021/05/22 05:40:38;;;;;;;1.70;0.73;;;8.50;99.90;;;;;;5010568;28;20076;-81
2021/05/22 05:43:09;;;;;;;0.80;0.80;;;8.50;99.90;;;;;;5011298;28;20386;-81
2021/05/22 05:45:34;;;;;;;0.97;0.80;;;8.50;99.90;;;;;;5011654;28;20018;-81
2021/05/22 05:48:00;;;;;;;2.00;0.80;;;8.60;99.90;;;;;;5011700;28;20057;-81
2021/05/22 05:50:26;;;;;;;1.80;0.90;;;8.70;99.90;;;;;;5012556;28;20022;-81
2021/05/22 05:52:51;;;;;;;3.07;0.93;;;8.80;99.90;;;;;;5011085;28;20018;-81
2021/05/22 05:55:17;;;;;;;2.43;1.30;;;8.80;99.90;;;;;;5011516;28;20037;-81
2021/05/22 05:57:42;;;;;;;4.40;1.77;;;8.90;99.90;;;;;;5025072;28;20061;-81
2021/05/22 06:00:09;;;;;;;1.27;1.00;;;9.00;99.90;;;;;;5009913;28;20469;-81
2021/05/22 06:02:34;;;;;;;2.20;1.47;;;9.00;99.90;;;;;;4992259;28;20030;-75
2021/05/22 06:05:00;;;;;;;3.90;1.43;;;9.10;99.90;;;;;;5013101;28;20034;-75
2021/05/22 06:07:26;;;;;;;2.27;1.63;;;9.20;99.90;;;;;;5012794;28;20022;-75
2021/05/22 06:09:51;;;;;;;3.90;1.20;;;9.20;99.90;;;;;;5028182;28;20029;-75
2021/05/22 06:12:17;;;;;;;2.03;1.20;;;9.20;99.90;;;;;;5012893;28;20502;-75
2021/05/22 06:14:48;;;;;;;4.77;1.37;;;9.30;99.90;;;;;;5012836;28;20104;-75
2021/05/22 06:17:14;;;;;;;1.50;1.07;;;9.20;99.90;;;;;;5012912;28;20109;-75
2021/05/22 06:19:39;;;;;;;3.70;1.10;;;9.10;99.90;;;;;;5012758;28;20057;-74
2021/05/22 06:22:05;;;;;;;3.50;1.17;;;9.20;99.90;;;;;;5013075;28;20026;-75
2021/05/22 06:24:31;;;;;;;3.17;1.20;;;9.10;99.90;;;;;;5012734;28;20077;-75
2021/05/22 06:26:57;;;;;;;2.37;1.47;;;9.10;99.90;;;;;;5014648;28;20486;-80
2021/05/22 06:29:23;;;;;;;2.60;1.20;;;9.20;99.90;;;;;;5012391;28;20041;-81
2021/05/22 06:31:49;;;;;;;9.70;1.30;;;9.40;99.90;;;;;;5013679;28;20030;-81
2021/05/22 06:34:14;;;;;;;3.30;1.20;;;9.50;99.90;;;;;;5009598;28;20685;-80
2021/05/22 06:36:40;;;;;;;3.83;1.20;;;9.70;99.90;;;;;;5015937;28;20021;-80
2021/05/22 06:39:06;;;;;;;1.20;1.00;;;10.00;99.90;;;;;;5010133;28;20057;-80
2021/05/22 06:41:31;;;;;;;2.80;0.90;;;10.20;99.90;;;;;;5008641;28;20030;-80
2021/05/22 06:43:57;;;;;;;4.93;1.20;;;10.50;99.90;;;;;;5016935;28;20078;-75
2021/05/22 06:48:48;;;;;;;1.98;0.82;;;11.10;99.90;;;;;;5012630;28;20081;-75
2021/05/22 06:51:14;;;;;;;3.50;1.00;;;11.30;99.90;;;;;;5010095;28;20045;-80
2021/05/22 06:53:40;;;;;;;2.55;1.00;;;11.30;99.90;;;;;;5015349;28;20034;-75
2021/05/22 06:56:05;;;;;;;3.30;1.40;;;11.20;99.90;;;;;;5016053;28;20022;-75
2021/05/22 06:58:31;;;;;;;3.95;1.10;;;11.30;99.90;;;;;;5015835;28;20466;-75
2021/05/22 07:00:57;;;;;;;2.38;0.95;;;11.40;99.90;;;;;;5015562;28;20026;-74
2021/05/22 07:03:23;;;;;;;2.88;0.90;;;11.50;99.90;;;;;;5015958;28;20093;-75
2021/05/22 07:05:49;;;;;;;3.95;1.20;;;11.60;99.90;;;;;;5015688;28;20030;-75
2021/05/22 07:08:16;;;;;;;3.08;1.23;;;11.60;99.90;;;;;;5015369;28;20105;-75
2021/05/22 07:10:42;;;;;;;2.65;1.42;;;11.70;99.90;;;;;;5015631;28;20029;-75
2021/05/22 07:13:08;;;;;;;3.17;1.45;;;11.80;99.90;;;;;;5015397;28;20022;-75
2021/05/22 07:15:34;;;;;;;3.17;1.02;;;11.80;99.90;;;;;;5015164;28;20443;-74
2021/05/22 07:18:00;;;;;;;3.85;1.10;;;11.70;99.90;;;;;;5015134;28;20759;-74
2021/05/22 07:20:25;;;;;;;4.88;1.40;;;11.80;99.90;;;;;;5015338;28;20045;-74
2021/05/22 07:22:51;;;;;;;8.90;1.10;;;11.80;99.90;;;;;;5015405;28;20049;-74
2021/05/22 07:25:21;;;;;;;4.00;1.38;;;12.00;99.90;;;;;;5015025;28;20109;-74
2021/05/22 07:27:49;;;;;;;5.57;1.20;;;12.10;99.90;;;;;;5015156;28;20026;-74
2021/05/22 07:30:16;;;;;;;5.28;1.30;;;12.20;99.90;;;;;;5022045;28;20073;-75
2021/05/22 07:32:42;;;;;;;5.43;1.27;;;12.10;99.90;;;;;;5034586;28;20028;-75
2021/05/22 07:35:10;;;;;;;6.28;1.77;;;12.10;99.90;;;;;;5035115;28;20100;-74
2021/05/22 07:37:36;;;;;;;5.20;1.70;;;12.20;99.90;;;;;;5033685;28;20021;-75
2021/05/22 07:40:03;;;;;;;6.47;1.83;;;12.30;99.90;;;;;;5035091;28;20117;-75
2021/05/22 07:42:28;;;;;;;5.28;1.40;;;12.30;99.90;;;;;;5016816;28;20080;-75
2021/05/22 07:44:58;;;;;;;6.80;1.13;;;12.50;99.90;;;;;;5033324;28;20021;-75
2021/05/22 07:47:24;;;;;;;6.95;1.65;;;12.70;99.90;;;;;;5024123;28;20064;-81
2021/05/22 07:49:53;;;;;;;5.75;1.45;;;12.60;99.90;;;;;;5025647;28;20033;-75
2021/05/22 07:52:20;;;;;;;4.65;1.40;;;12.50;99.90;;;;;;5007894;28;20036;-68
2021/05/22 07:54:46;;;;;;;5.38;1.42;;;12.70;99.90;;;;;;5024605;28;20037;-68
2021/05/22 07:57:13;;;;;;;5.00;1.80;;;12.80;99.90;;;;;;5027073;28;20021;-81
2021/05/22 07:59:39;;;;;;;8.85;1.90;;;13.00;99.90;;;;;;5013487;28;20025;-81
2021/05/22 08:02:07;;;;;;;7.68;1.52;;;12.70;99.90;;;;;;5007684;28;20033;-75
2021/05/22 08:04:33;;;;;;;6.82;1.60;;;12.70;99.90;;;;;;4995007;28;20040;-74
2021/05/22 08:06:59;;;;;;;5.10;1.30;;;12.70;99.90;;;;;;5009369;28;20021;-74
2021/05/22 08:09:25;;;;;;;4.18;1.40;;;12.70;99.90;;;;;;5014149;28;20464;-76
2021/05/22 08:11:51;;;;;;;5.90;1.70;;;12.80;99.90;;;;;;5021713;28;20034;-75
2021/05/22 08:14:16;;;;;;;6.93;1.55;;;12.90;99.90;;;;;;5029162;28;20045;-75
2021/05/22 08:16:43;;;;;;;4.93;1.48;;;13.00;99.90;;;;;;5026947;28;20032;-75
2021/05/22 08:19:10;;;;;;;5.80;1.42;;;13.10;99.90;;;;;;5014406;28;20084;-75
2021/05/22 08:21:36;;;;;;;7.15;1.50;;;13.30;99.90;;;;;;5033157;28;20033;-74
2021/05/22 08:24:02;;;;;;;5.68;1.25;;;13.30;99.90;;;;;;5033894;28;20026;-75
2021/05/22 08:26:28;;;;;;;7.65;2.03;;;13.40;99.90;;;;;;5033730;28;20026;-75
2021/05/22 08:28:54;;;;;;;4.65;1.10;;;13.50;99.90;;;;;;5014377;28;20092;-83
2021/05/22 08:31:20;;;;;;;4.50;1.05;;;13.50;99.90;;;;;;5033538;28;20105;-75
2021/05/22 08:33:48;;;;;;;6.05;1.70;;;13.60;99.90;;;;;;5033649;28;20051;-74
2021/05/22 08:36:13;;;;;;;3.47;1.10;;;13.50;99.90;;;;;;5032593;28;20029;-83
2021/05/22 08:38:39;;;;;;;6.93;1.42;;;13.40;99.90;;;;;;5033015;28;20085;-78
2021/05/22 08:41:07;;;;;;;7.35;1.73;;;13.50;99.90;;;;;;5033768;28;20031;-77
2021/05/22 08:43:34;;;;;;;5.30;1.27;;;13.60;99.90;;;;;;5033809;28;20049;-77
2021/05/22 08:46:00;;;;;;;6.00;1.40;;;13.70;99.90;;;;;;5033650;28;20037;-77
2021/05/22 08:48:26;;;;;;;5.38;1.30;;;13.50;99.90;;;;;;5033591;28;20454;-77
2021/05/22 08:50:51;;;;;;;3.72;1.20;;;13.50;99.90;;;;;;5016205;28;20079;-76
2021/05/22 08:53:17;;;;;;;3.22;1.10;;;13.50;99.90;;;;;;5033626;28;20017;-77
2021/05/22 08:55:43;;;;;;;4.22;1.27;;;13.50;99.90;;;;;;5015672;28;20083;-77
2021/05/22 08:58:10;;;;;;;3.22;1.30;;;13.80;99.90;;;;;;5033564;28;20029;-77
2021/05/22 09:00:39;;;;;;;3.55;0.90;;;13.90;99.90;;;;;;5027405;28;20473;-67
2021/05/22 09:03:07;;;;;;;4.35;1.35;;;14.00;99.90;;;;;;5022837;28;20076;-67
2021/05/22 09:05:34;;;;;;;5.95;1.42;;;14.10;99.90;;;;;;5031448;28;20036;-67
2021/05/22 09:08:06;;;;;;;4.78;1.20;;;14.00;99.90;;;;;;5004889;28;20026;-67
2021/05/22 09:10:52;;;;;;;4.03;1.35;;;13.80;99.90;;;;;;5028876;28;20574;-78
2021/05/22 09:13:26;;;;;;;4.03;1.27;;;13.90;99.90;;;;;;4976191;28;20176;-78
2021/05/22 09:16:09;;;;;;;4.13;1.73;;;13.90;99.90;;;;;;4993563;28;20046;-82
2021/05/22 09:18:40;;;;;;;4.32;1.10;;;14.10;99.90;;;;;;4993339;28;20022;-78
2021/05/22 09:21:08;;;;;;;5.32;1.50;;;14.10;99.90;;;;;;4993908;28;20026;-76
2021/05/22 09:23:40;;;;;;;3.38;1.10;;;14.20;99.90;;;;;;4993981;28;20023;-76
2021/05/22 09:26:12;;;;;;;3.22;1.25;;;14.30;99.90;;;;;;4993765;28;20029;-76
2021/05/22 09:28:45;;;;;;;4.68;1.10;;;14.50;99.90;;;;;;4993490;28;20371;-76
2021/05/22 09:31:15;;;;;;;2.88;1.40;;;14.50;99.90;;;;;;4993514;28;20034;-77
2021/05/22 09:33:40;;;;;;;4.60;1.52;;;14.60;99.90;;;;;;5008527;28;20022;-76
2021/05/22 09:36:13;;;;;;;4.45;1.15;;;14.90;99.90;;;;;;4993503;28;20053;-76
2021/05/22 09:38:46;;;;;;;7.47;1.65;;;15.00;99.90;;;;;;4993713;28;20442;-75
2021/05/22 09:41:23;;;;;;;5.97;1.33;;;15.10;99.90;;;;;;4993818;28;20477;-75
2021/05/22 09:44:10;;;;;;;4.75;1.17;;;15.10;99.90;;;;;;4993882;28;20058;-74
2021/05/22 09:46:44;;;;;;;6.95;1.02;;;15.30;99.90;;;;;;4993391;28;20482;-76
2021/05/22 09:49:11;;;;;;;4.90;1.35;;;15.50;99.90;;;;;;5010012;28;20052;-67
2021/05/22 09:52:01;;;;;;;4.20;1.25;;;15.60;99.90;;;;;;5032645;28;20025;-67
2021/05/22 09:54:45;;;;;;;3.03;1.20;;;15.70;99.90;;;;;;5013132;28;20471;-76
2021/05/22 09:57:15;;;;;;;5.53;1.40;;;15.80;99.90;;;;;;5013425;28;20101;-76
2021/05/22 09:59:40;;;;;;;4.00;1.05;;;16.00;99.90;;;;;;5011754;28;20037;-76
2021/05/22 10:02:06;;;;;;;4.15;1.20;;;15.90;99.90;;;;;;5015977;28;20446;-75
2021/05/22 10:04:31;;;;;;;3.05;1.10;;;16.00;99.90;;;;;;5016989;28;20036;-76
2021/05/22 10:06:57;;;;;;;3.85;1.05;;;16.10;99.90;;;;;;4998942;28;20030;-76
2021/05/22 10:09:25;;;;;;;1.70;0.95;;;16.10;99.90;;;;;;5016887;28;20025;-75
2021/05/22 10:12:12;;;;;;;3.78;1.05;;;16.20;99.90;;;;;;5016905;28;20025;-75
2021/05/22 10:14:41;;;;;;;5.05;1.40;;;16.70;99.90;;;;;;5015115;28;20128;-76
2021/05/22 10:17:08;;;;;;;2.70;1.23;;;16.70;98.80;;;;;;5016438;28;20029;-76
2021/05/22 10:19:35;;;;;;;3.78;1.38;;;16.60;99.90;;;;;;5016414;28;20022;-76
2021/05/22 10:22:02;;;;;;;3.75;1.15;;;16.60;98.30;;;;;;5016427;28;20033;-76
2021/05/22 10:24:28;;;;;;;3.25;1.10;;;16.70;97.80;;;;;;5016430;28;20030;-75
2021/05/22 10:26:55;;;;;;;6.07;1.25;;;17.10;99.10;;;;;;5016428;28;20435;-77
2021/05/22 10:29:21;;;;;;;5.80;1.17;;;17.30;96.90;;;;;;5016397;28;20160;-77
2021/05/22 10:31:48;;;;;;;6.45;1.23;;;17.30;95.10;;;;;;5016344;28;20023;-76
2021/05/22 10:34:17;;;;;;;3.95;1.20;;;17.40;93.80;;;;;;5016132;28;20022;-76
2021/05/22 10:36:53;;;;;;;3.10;1.20;;;17.40;91.90;;;;;;5031490;28;20673;-67
2021/05/22 10:39:39;;;;;;;2.30;1.02;;;17.50;94.00;;;;;;5015819;28;20026;-67
2021/05/22 10:42:08;;;;;;;2.25;1.10;;;17.40;93.40;;;;;;5021843;28;20029;-68
2021/05/22 10:44:37;;;;;;;3.85;1.30;;;17.40;94.30;;;;;;5035465;28;20096;-70
2021/05/22 10:47:13;;;;;;;4.60;1.02;;;17.70;94.00;;;;;;5016515;28;20061;-67
2021/05/22 10:49:53;;;;;;;3.67;1.00;;;17.90;91.30;;;;;;5016058;28;20467;-67
2021/05/22 10:52:27;;;;;;;3.67;1.98;;;17.70;89.50;;;;;;5015518;28;20281;-67
2021/05/22 10:55:08;;;;;;;3.92;1.10;;;17.60;87.10;;;;;;5028936;28;20017;-67
2021/05/22 10:57:46;;;;;;;3.20;1.00;;;17.70;87.90;;;;;;4994581;28;20022;-67
2021/05/22 11:00:19;;;;;;;2.83;1.02;;;18.00;90.00;;;;;;5010695;28;20022;-67
2021/05/22 11:02:46;;;;;;;3.08;0.93;;;18.30;84.90;;;;;;5015860;28;20112;-67
2021/05/22 11:05:37;;;;;;;5.72;1.10;;;18.10;83.10;;;;;;5015214;28;20022;-71
2021/05/22 11:08:08;;;;;;;2.75;1.00;;;18.30;82.50;;;;;;5015108;28;20226;-67
2021/05/22 11:10:34;;;;;;;3.47;1.10;;;18.40;82.50;;;;;;5015183;28;20033;-67
2021/05/22 11:12:59;;;;;;;2.92;1.10;;;18.50;84.00;;;;;;5015502;28;20026;-67
2021/05/22 11:15:44;;;;;;;2.67;1.00;;;18.70;79.50;;;;;;5029322;28;20049;-67
2021/05/22 11:18:11;;;;;;;2.85;1.00;;;18.80;82.40;;;;;;5016072;28;20029;-69
2021/05/22 11:20:38;;;;;;;2.50;1.02;;;19.00;83.40;;;;;;5025044;28;20021;-67
2021/05/22 11:23:04;;;;;;;3.08;1.20;;;19.00;79.30;;;;;;5027987;28;20018;-67
2021/05/22 11:25:50;;;;;;;3.30;1.08;;;19.10;86.10;;;;;;5022844;28;20030;-67
2021/05/22 11:28:18;;;;;;;4.97;1.20;;;19.20;80.00;;;;;;5020328;28;20025;-67
2021/05/22 11:30:50;;;;;;;3.72;1.25;;;18.60;79.90;;;;;;5017416;28;20092;-67
2021/05/22 11:33:21;;;;;;;2.95;1.30;;;18.20;80.50;;;;;;5018388;28;20091;-67
2021/05/22 11:35:50;;;;;;;6.20;1.05;;;18.10;82.10;;;;;;5019842;28;20045;-67
2021/05/22 11:38:19;;;;;;;4.10;0.90;;;18.20;81.40;;;;;;5013549;28;21498;-70
2021/05/22 11:40:45;;;;;;;2.60;1.10;;;18.30;82.40;;;;;;5014809;28;20025;-67
2021/05/22 11:43:20;;;;;;;3.65;1.30;;;18.30;82.00;;;;;;5015995;28;20165;-67
2021/05/22 11:45:45;;;;;;;;;;;18.50;79.30;;;;;;5016532;28;20030;-67
2021/05/22 11:48:50;;;;;;;3.10;1.20;;;18.70;75.90;;;;;;5026894;28;20481;-67
2021/05/22 11:51:28;;;;;;;3.97;1.50;;;18.70;78.80;;;;;;5025084;28;20541;-67
2021/05/22 11:54:02;;;;;;;5.10;1.00;;;18.50;78.90;;;;;;5025472;28;20474;-67
2021/05/22 11:56:30;;;;;;;7.55;1.65;;;18.40;80.30;;;;;;5034007;28;20105;-67
2021/05/22 11:58:57;;;;;;;1.58;0.93;;;18.40;82.00;;;;;;5029595;28;20030;-67
2021/05/22 12:01:32;;;;;;;3.80;1.20;;;18.80;82.00;;;;;;5013733;28;20032;-68
2021/05/22 12:04:10;;;;;;;;;;;19.20;76.90;;;;;;5018064;28;20017;-67
2021/05/22 12:06:41;;;;;;;1.60;0.80;;;18.90;77.50;;;;;;5033430;28;19909;-67
2021/05/22 12:09:09;;;;;;;2.83;1.00;;;19.20;77.10;;;;;;5015184;28;20057;-67
2021/05/22 12:11:38;;;;;;;3.85;0.93;;;19.30;78.50;;;;;;5025841;28;20462;-67
2021/05/22 12:14:06;;;;;;;3.65;1.00;;;19.50;74.40;;;;;;5019621;28;20142;-67
2021/05/22 12:16:33;;;;;;;6.35;1.20;;;19.40;74.30;;;;;;5018443;28;20101;-68
2021/05/22 12:19:17;;;;;;;3.00;1.27;;;19.60;72.70;;;;;;5021227;28;20026;-67
2021/05/22 12:21:53;;;;;;;5.63;1.10;;;19.80;72.70;;;;;;5019610;28;20159;-68
2021/05/22 12:24:20;;;;;;;2.55;1.00;;;19.90;73.70;;;;;;5018789;28;20033;-68
2021/05/22 12:26:52;;;;;;;4.63;1.35;;;20.10;68.40;;;;;;5026931;28;20116;-68
2021/05/22 12:29:19;;;;;;;4.90;1.27;;;19.70;72.90;;;;;;5011050;28;20056;-68
2021/05/22 12:31:50;;;;;;;3.38;1.10;;;19.80;73.40;;;;;;5010612;28;20037;-67
2021/05/22 12:34:15;;;;;;;3.15;1.23;;;19.50;70.30;;;;;;5010664;28;20438;-68
2021/05/22 12:37:24;;;;;;;4.35;1.20;;;19.40;74.20;;;;;;5013859;28;20025;-68
2021/05/22 12:39:52;;;;;;;2.58;1.10;;;18.90;75.60;;;;;;5010476;28;20052;-68
2021/05/22 12:42:20;;;;;;;4.65;1.30;;;18.40;74.30;;;;;;5027782;28;20497;-68
2021/05/22 12:44:47;;;;;;;2.38;1.25;;;17.80;76.10;;;;;;5032815;28;20029;-66
2021/05/22 12:47:13;;;;;;;3.08;1.00;;;17.50;78.10;;;;;;5019311;28;20401;-67
2021/05/22 12:49:53;;;;;;;3.53;1.23;;;17.40;78.70;;;;;;5032906;28;20028;-66
2021/05/22 12:52:19;;;;;;;3.38;1.23;;;17.40;77.50;;;;;;5019477;28;20018;-66
2021/05/22 12:54:45;;;;;;;3.42;1.00;;;17.50;77.90;;;;;;5032890;28;20021;-66
2021/05/22 12:57:14;;;;;;;4.03;1.20;;;17.70;77.70;;;;;;5015744;28;20022;-67
2021/05/22 13:00:02;;;;;;;2.72;0.88;;;18.10;80.00;;;;;;5011207;28;20089;-67